Flight Track Log - Related Links

Times and Time Zones

All times are in EST time to prevent confusion due to time zone crossing. See the N340K flight status page for this flight to view local times or setup timezone preferences in your user account.

Time Position Orientation Groundspeed Altitude Reporting Facility
EST Latitude Longitude Course Direction KTS MPH feet Rate Location/Type
Thu 08:45:48 PM 46.3767 -120.2994 331° Northwest 129 148 10,500  Level Seattle Center
Thu 08:46:48 PM 46.4100 -120.3258 331° Northwest 130 150 10,800 545 Climbing Seattle Center
Thu 08:47:49 PM 46.4375 -120.3444 335° Northwest 107 123 11,600 639 Climbing Seattle Center
Thu 08:48:50 PM 46.4675 -120.3603 340° North 115 132 12,100 246 Climbing Seattle Center
Thu 08:49:51 PM 46.4994 -120.3869 330° Northwest 131 151 12,100  Level Seattle Center
Thu 08:50:52 PM 46.5303 -120.4097 333° Northwest 125 144 12,100  Level Seattle Center
Thu 08:51:53 PM 46.5642 -120.4372 331° Northwest 130 150 12,100  Level Seattle Center
Thu 08:52:54 PM 46.5972 -120.4661 329° Northwest 139 160 12,100  Level Seattle Center
Thu 08:53:55 PM 46.6303 -120.5006 324° Northwest 146 168 12,100  Level Seattle Center
Thu 08:54:55 PM 46.6622 -120.5328 325° Northwest 141 162 12,100 -50 Level Seattle Center
Thu 08:55:56 PM 46.6964 -120.5656 327° Northwest 145 167 12,000  Descending Seattle Center
Thu 08:56:57 PM 46.7283 -120.5967 326° Northwest 138 159 12,100 49 Climbing Seattle Center
Thu 08:57:58 PM 46.7569 -120.6275 324° Northwest 130 150 12,100 -49 Level Seattle Center
Thu 08:58:59 PM 46.7922 -120.6631 325° Northwest 140 161 12,000 -49 Descending Seattle Center
Thu 09:00:00 PM 46.8233 -120.6936 326° Northwest 135 155 12,000 49 Level Seattle Center
Thu 09:01:01 PM 46.8511 -120.7225 325° Northwest 124 143 12,100 50 Climbing Seattle Center
Thu 09:02:01 PM 46.8811 -120.7517 326° Northwest 128 147 12,100  Level Seattle Center
Thu 09:03:02 PM 46.9119 -120.7839 324° Northwest 135 155 12,100 -49 Level Seattle Center
Thu 09:04:03 PM 46.9417 -120.8142 325° Northwest 131 151 12,000  Descending Seattle Center
Thu 09:05:04 PM 46.9719 -120.8431 327° Northwest 129 148 12,100 49 Climbing Seattle Center
Thu 09:06:05 PM 46.9986 -120.8703 325° Northwest 115 132 12,100 49 Level Seattle Center
Thu 09:07:06 PM 47.0244 -120.8969 325° Northwest 107 123 12,200 49 Climbing Seattle Center
Thu 09:08:07 PM 47.0500 -120.9239 324° Northwest 113 130 12,200 149 Level Seattle Center
Thu 09:09:07 PM 47.0783 -120.9492 329° Northwest 118 136 12,500 496 Climbing Seattle Center
Thu 09:10:08 PM 47.1050 -120.9761 325° Northwest 116 133 13,200 689 Climbing Seattle Center
Thu 09:11:09 PM 47.1306 -121.0028 325° Northwest 112 129 13,900 443 Climbing Seattle Center
Thu 09:12:10 PM 47.1572 -121.0325 323° Northwest 121 139 14,100 98 Climbing Seattle Center
Thu 09:13:11 PM 47.1867 -121.0617 326° Northwest 128 147 14,100  Level Seattle Center
Thu 09:14:11 PM 47.2156 -121.0914 325° Northwest 125 144 14,100  Level Seattle Center
Thu 09:15:12 PM 47.2433 -121.1183 327° Northwest 121 139 14,100  Level Seattle Center
Thu 09:16:13 PM 47.2722 -121.1514 322° Northwest 118 136 14,100  Level Seattle Center
Thu 09:17:14 PM 47.2942 -121.1756 323° Northwest 122 140 14,100  Level Seattle Center
Thu 09:18:15 PM 47.3300 -121.2136 324° Northwest 131 151 14,100  Level Seattle Center
Thu 09:19:15 PM 47.3594 -121.2436 325° Northwest 135 155 14,100  Level Seattle Center
Thu 09:20:16 PM 47.3892 -121.2725 327° Northwest 132 152 14,100  Level Seattle Center
Thu 09:21:17 PM 47.4200 -121.3044 325° Northwest 130 150 14,100  Level Seattle Center
Thu 09:22:18 PM 47.4492 -121.3347 325° Northwest 130 150 14,100 -49 Level Seattle Center
Thu 09:23:19 PM 47.4797 -121.3678 324° Northwest 136 157 14,000  Descending Seattle Center
Thu 09:24:19 PM 47.5100 -121.3969 327° Northwest 130 150 14,100 50 Climbing Seattle Center
Thu 09:25:20 PM 47.5381 -121.4275 324° Northwest 125 144 14,100  Level Seattle Center
Thu 09:26:21 PM 47.5653 -121.4553 325° Northwest 119 137 14,100  Level Seattle Center
Thu 09:27:22 PM 47.5989 -121.4914 324° Northwest 137 158 14,100  Level Seattle Center
Thu 09:28:23 PM 47.6267 -121.5203 325° Northwest 124 143 14,100  Level Seattle Center
Thu 09:29:23 PM 47.6561 -121.5533 323° Northwest 132 152 14,100  Level Seattle Center
Thu 09:30:24 PM 47.6875 -121.5831 327° Northwest 133 153 14,100  Level Seattle Center
Thu 09:31:25 PM 47.7144 -121.6144 322° Northwest 124 143 14,100  Level Seattle Center
Thu 09:32:26 PM 47.7442 -121.6481 323° Northwest 134 154 14,100  Level Seattle Center
Thu 09:33:26 PM 47.7775 -121.6778 329° Northwest 130 150 14,100  Level Seattle Center
Thu 09:34:27 PM 47.8042 -121.7094 321° Northwest 125 144 14,100  Level Seattle Center
Thu 09:35:28 PM 47.8344 -121.7406 325° Northwest 134 154 14,100  Level Seattle Center
Thu 09:36:29 PM 47.8656 -121.7725 325° Northwest 135 155 14,100  Level Seattle Center
Thu 09:37:30 PM 47.8950 -121.8025 326° Northwest 131 151 14,100 -50 Level Seattle Center
Thu 09:38:30 PM 47.9247 -121.8350 324° Northwest 132 152 14,000  Descending Seattle Center
Thu 09:38:53 PM 47.9389 -121.8533 319° Northwest 137 158 14,100  Climbing Seattle Center
Thu 09:39:31 PM 47.9556 -121.8664 332° Northwest 134 154 14,000 -393 Descending Seattle Center
Thu 09:39:54 PM 47.9692 -121.8825 322° Northwest 132 152 13,700 -590 Descending Seattle Center
Thu 09:40:32 PM 47.9861 -121.9003 325° Northwest 136 157 13,400 -492 Descending Seattle Center
Thu 09:40:55 PM 48.0014 -121.9200 319° Northwest 147 169 13,200 -492 Descending Seattle Center
Thu 09:41:33 PM 48.0208 -121.9389 327° Northwest 153 176 12,900 -556 Descending Seattle Center
Thu 09:41:49 PM 48.0342 -121.9508 329° Northwest 158 182 12,700 -592 Descending Seattle Center
Thu 09:42:44 PM 48.0658 -121.9856 324° Northwest 158 182 12,200 -514 Descending Seattle Center
Thu 09:43:34 PM 48.0925 -122.0131 325° Northwest 160 184 11,800 -700 Descending Seattle Center
Thu 09:43:44 PM 48.1008 -122.0253 316° Northwest 160 184 11,500 -295 Descending Seattle Center
Thu 09:44:35 PM 48.1283 -122.0511 328° Northwest 159 183 11,500  Level Seattle Center
Thu 09:44:45 PM 48.1378 -122.0636 319° Northwest 153 176 11,500 -689 Level Seattle Center
Thu 09:45:36 PM 48.1531 -122.1092 297° West 150 173 10,800 -800 Descending Seattle Center
Thu 09:45:45 PM 48.1531 -122.1214 270° West 151 174 10,700 -885 Descending Seattle Center
Thu 09:46:37 PM 48.1811 -122.1561 320° Northwest 169 194 9,900 -984 Descending Seattle Center
Thu 09:46:46 PM 48.1881 -122.1611 334° Northwest 177 204 9,700 -1,377 Descending Seattle Center
Thu 09:47:38 PM 48.2319 -122.1814 343° North 191 220 8,500 -1,574 Descending Seattle Center
Thu 09:47:47 PM 48.2369 -122.1861 328° Northwest 196 226 8,100 -1,652 Descending Seattle Center
Thu 09:48:47 PM 48.2803 -122.2411 320° Northwest 192 221 6,600 -1,500 Descending Seattle Center
Thu 09:49:39 PM 48.3203 -122.2686 335° Northwest 198 228 5,300 -1,574 Descending Seattle Center
Thu 09:49:48 PM 48.3278 -122.2769 324° Northwest 200 230 5,000 -1,279 Descending Seattle Center
Thu 09:50:40 PM 48.3667 -122.3042 335° Northwest 188 216 4,000 -1,164 Descending Seattle Center
Thu 09:50:55 PM 48.3778 -122.3147 328° Northwest 183 211 3,700 -393 Descending Seattle Center
Thu 09:51:41 PM 48.4064 -122.3375 332° Northwest 182 209 3,600 -130 Descending Seattle Center

Login

Don't have an account? Register now (free) for customized features, flight alerts, and more!